Comins, Michigan
Current Conditions -  °F | °C
As of 3:54 PM on Friday 19 Dec 2014 (Local Time) from KAPN Reporting Station
Clear Clear  
Wind Chill: -2°   Ceiling: Unl
Heat Index: -2°   Visibility: 10mi
Dew Point: -8°   Wind: 3mph
Humidity: 66%   Direction: 10°N
Pressure: 30.26"   Gusts: NA
Location:  44.8°N, 84.04°W
Report Text: KAPN 192054Z AUTO 01003KT 10SM CLR M02/M08 A3026 RMK AO2 SLP258 T10221078 53002
Loading
Personal Weather Stations






























Interactive Weather Map New forecast layout! Learn more

10-Day Weather Forecast

Advertisements
Track Severe Weather on mobile